sensor_id;sensor_type;location;lat;lon;timestamp;P1;durP1;ratioP1;P2;durP2;ratioP2
54937;SDS011;52756;52.826;6.214;2022-08-25T00:01:00;7.93;;;7.22;;
54937;SDS011;52756;52.826;6.214;2022-08-25T00:03:26;7.55;;;6.85;;
54937;SDS011;52756;52.826;6.214;2022-08-25T00:05:52;8.63;;;7.35;;
54937;SDS011;52756;52.826;6.214;2022-08-25T00:08:18;7.72;;;7.07;;
54937;SDS011;52756;52.826;6.214;2022-08-25T00:10:43;7.72;;;6.97;;
54937;SDS011;52756;52.826;6.214;2022-08-25T00:13:09;8.07;;;7.32;;
54937;SDS011;52756;52.826;6.214;2022-08-25T00:15:35;7.25;;;6.55;;
54937;SDS011;52756;52.826;6.214;2022-08-25T00:18:02;7.20;;;6.50;;
54937;SDS011;52756;52.826;6.214;2022-08-25T00:20:29;8.27;;;7.57;;
54937;SDS011;52756;52.826;6.214;2022-08-25T00:22:55;8.15;;;7.10;;
54937;SDS011;52756;52.826;6.214;2022-08-25T00:25:21;9.15;;;7.00;;
54937;SDS011;52756;52.826;6.214;2022-08-25T00:27:48;7.03;;;6.32;;
54937;SDS011;52756;52.826;6.214;2022-08-25T00:30:15;8.10;;;6.68;;
54937;SDS011;52756;52.826;6.214;2022-08-25T00:32:41;7.25;;;6.45;;
54937;SDS011;52756;52.826;6.214;2022-08-25T00:35:08;7.07;;;6.38;;
54937;SDS011;52756;52.826;6.214;2022-08-25T00:37:34;9.00;;;6.78;;
54937;SDS011;52756;52.826;6.214;2022-08-25T00:40:03;7.40;;;6.75;;
54937;SDS011;52756;52.826;6.214;2022-08-25T00:42:30;6.90;;;6.15;;
54937;SDS011;52756;52.826;6.214;2022-08-25T00:44:56;6.57;;;5.60;;
54937;SDS011;52756;52.826;6.214;2022-08-25T00:47:22;8.07;;;7.03;;
54937;SDS011;52756;52.826;6.214;2022-08-25T00:49:53;7.97;;;7.18;;
54937;SDS011;52756;52.826;6.214;2022-08-25T00:52:24;7.22;;;6.35;;
54937;SDS011;52756;52.826;6.214;2022-08-25T00:55:28;6.82;;;6.13;;
54937;SDS011;52756;52.826;6.214;2022-08-25T00:57:51;7.80;;;6.50;;
54937;SDS011;52756;52.826;6.214;2022-08-25T01:00:29;7.00;;;6.30;;
54937;SDS011;52756;52.826;6.214;2022-08-25T01:02:58;6.82;;;6.20;;
54937;SDS011;52756;52.826;6.214;2022-08-25T01:05:24;7.20;;;5.97;;
54937;SDS011;52756;52.826;6.214;2022-08-25T01:07:51;7.05;;;6.25;;
54937;SDS011;52756;52.826;6.214;2022-08-25T01:10:18;6.80;;;6.07;;
54937;SDS011;52756;52.826;6.214;2022-08-25T01:12:45;8.05;;;5.82;;
54937;SDS011;52756;52.826;6.214;2022-08-25T01:15:12;7.07;;;6.40;;
54937;SDS011;52756;52.826;6.214;2022-08-25T01:20:12;6.75;;;6.13;;
54937;SDS011;52756;52.826;6.214;2022-08-25T01:22:38;6.10;;;5.50;;
54937;SDS011;52756;52.826;6.214;2022-08-25T01:25:06;8.02;;;6.10;;
54937;SDS011;52756;52.826;6.214;2022-08-25T01:27:44;7.45;;;5.85;;
54937;SDS011;52756;52.826;6.214;2022-08-25T01:30:10;6.18;;;5.55;;
54937;SDS011;52756;52.826;6.214;2022-08-25T01:32:36;5.72;;;5.13;;
54937;SDS011;52756;52.826;6.214;2022-08-25T01:35:02;6.47;;;5.13;;
54937;SDS011;52756;52.826;6.214;2022-08-25T01:37:28;5.97;;;4.70;;
54937;SDS011;52756;52.826;6.214;2022-08-25T01:39:53;6.22;;;4.95;;
54937;SDS011;52756;52.826;6.214;2022-08-25T01:44:50;5.32;;;4.38;;
54937;SDS011;52756;52.826;6.214;2022-08-25T01:47:16;5.07;;;4.57;;
54937;SDS011;52756;52.826;6.214;2022-08-25T01:49:42;5.85;;;4.25;;
54937;SDS011;52756;52.826;6.214;2022-08-25T01:54:53;7.50;;;4.22;;
54937;SDS011;52756;52.826;6.214;2022-08-25T01:57:19;4.35;;;3.90;;
54937;SDS011;52756;52.826;6.214;2022-08-25T01:59:46;4.70;;;3.88;;
54937;SDS011;52756;52.826;6.214;2022-08-25T02:02:12;6.45;;;3.80;;
54937;SDS011;52756;52.826;6.214;2022-08-25T02:04:38;5.47;;;3.53;;
54937;SDS011;52756;52.826;6.214;2022-08-25T02:07:04;5.65;;;3.53;;
54937;SDS011;52756;52.826;6.214;2022-08-25T02:09:32;5.75;;;4.30;;
54937;SDS011;52756;52.826;6.214;2022-08-25T02:11:58;6.28;;;4.05;;
54937;SDS011;52756;52.826;6.214;2022-08-25T02:14:24;6.45;;;4.32;;
54937;SDS011;52756;52.826;6.214;2022-08-25T02:16:52;4.78;;;3.50;;
54937;SDS011;52756;52.826;6.214;2022-08-25T02:19:20;4.88;;;4.00;;
54937;SDS011;52756;52.826;6.214;2022-08-25T02:21:47;5.22;;;3.75;;
54937;SDS011;52756;52.826;6.214;2022-08-25T02:24:13;5.70;;;3.70;;
54937;SDS011;52756;52.826;6.214;2022-08-25T02:26:39;5.65;;;3.67;;
54937;SDS011;52756;52.826;6.214;2022-08-25T02:29:05;5.68;;;3.40;;
54937;SDS011;52756;52.826;6.214;2022-08-25T02:31:31;5.90;;;4.00;;
54937;SDS011;52756;52.826;6.214;2022-08-25T02:33:57;7.68;;;3.63;;
54937;SDS011;52756;52.826;6.214;2022-08-25T02:36:23;6.93;;;3.22;;
54937;SDS011;52756;52.826;6.214;2022-08-25T02:38:49;6.10;;;3.38;;
54937;SDS011;52756;52.826;6.214;2022-08-25T02:41:16;9.10;;;3.55;;
54937;SDS011;52756;52.826;6.214;2022-08-25T02:43:45;4.90;;;2.88;;
54937;SDS011;52756;52.826;6.214;2022-08-25T02:46:12;8.10;;;3.95;;
54937;SDS011;52756;52.826;6.214;2022-08-25T02:48:39;6.68;;;3.55;;
54937;SDS011;52756;52.826;6.214;2022-08-25T02:51:07;5.18;;;3.38;;
54937;SDS011;52756;52.826;6.214;2022-08-25T02:53:34;5.10;;;3.05;;
54937;SDS011;52756;52.826;6.214;2022-08-25T02:56:03;8.50;;;3.67;;
54937;SDS011;52756;52.826;6.214;2022-08-25T02:58:29;5.88;;;3.25;;
54937;SDS011;52756;52.826;6.214;2022-08-25T03:00:55;10.80;;;3.38;;
54937;SDS011;52756;52.826;6.214;2022-08-25T03:03:21;6.10;;;3.30;;
54937;SDS011;52756;52.826;6.214;2022-08-25T03:05:47;6.53;;;3.28;;
54937;SDS011;52756;52.826;6.214;2022-08-25T03:08:12;5.95;;;3.60;;
54937;SDS011;52756;52.826;6.214;2022-08-25T03:10:38;4.47;;;3.10;;
54937;SDS011;52756;52.826;6.214;2022-08-25T03:13:04;6.60;;;3.10;;
54937;SDS011;52756;52.826;6.214;2022-08-25T03:15:30;4.43;;;2.78;;
54937;SDS011;52756;52.826;6.214;2022-08-25T03:17:56;4.72;;;3.05;;
54937;SDS011;52756;52.826;6.214;2022-08-25T03:20:23;4.40;;;3.28;;
54937;SDS011;52756;52.826;6.214;2022-08-25T03:22:49;4.90;;;3.20;;
54937;SDS011;52756;52.826;6.214;2022-08-25T03:25:16;3.95;;;2.92;;
54937;SDS011;52756;52.826;6.214;2022-08-25T03:28:01;4.70;;;3.00;;
54937;SDS011;52756;52.826;6.214;2022-08-25T03:30:27;6.53;;;3.55;;
54937;SDS011;52756;52.826;6.214;2022-08-25T03:32:53;5.80;;;3.05;;
54937;SDS011;52756;52.826;6.214;2022-08-25T03:35:20;3.88;;;3.03;;
54937;SDS011;52756;52.826;6.214;2022-08-25T03:37:46;5.03;;;3.00;;
54937;SDS011;52756;52.826;6.214;2022-08-25T03:40:13;5.18;;;3.00;;
54937;SDS011;52756;52.826;6.214;2022-08-25T03:42:41;5.70;;;3.72;;
54937;SDS011;52756;52.826;6.214;2022-08-25T03:45:10;4.93;;;3.40;;
54937;SDS011;52756;52.826;6.214;2022-08-25T03:47:38;4.32;;;3.10;;
54937;SDS011;52756;52.826;6.214;2022-08-25T03:50:05;6.82;;;3.47;;
54937;SDS011;52756;52.826;6.214;2022-08-25T03:52:32;4.63;;;3.40;;
54937;SDS011;52756;52.826;6.214;2022-08-25T03:54:58;5.15;;;3.50;;
54937;SDS011;52756;52.826;6.214;2022-08-25T03:57:24;5.57;;;2.95;;
54937;SDS011;52756;52.826;6.214;2022-08-25T03:59:50;6.68;;;3.47;;
54937;SDS011;52756;52.826;6.214;2022-08-25T04:02:16;3.92;;;3.00;;
54937;SDS011;52756;52.826;6.214;2022-08-25T04:04:42;4.43;;;3.13;;
54937;SDS011;52756;52.826;6.214;2022-08-25T04:07:08;5.35;;;3.67;;
54937;SDS011;52756;52.826;6.214;2022-08-25T04:09:34;4.35;;;3.00;;
54937;SDS011;52756;52.826;6.214;2022-08-25T04:12:00;5.25;;;3.35;;
54937;SDS011;52756;52.826;6.214;2022-08-25T04:14:26;5.00;;;2.97;;
54937;SDS011;52756;52.826;6.214;2022-08-25T04:16:51;4.10;;;3.00;;
54937;SDS011;52756;52.826;6.214;2022-08-25T04:19:17;5.78;;;3.22;;
54937;SDS011;52756;52.826;6.214;2022-08-25T04:21:44;6.07;;;2.75;;
54937;SDS011;52756;52.826;6.214;2022-08-25T04:24:11;6.25;;;3.30;;
54937;SDS011;52756;52.826;6.214;2022-08-25T04:26:39;7.53;;;3.70;;
54937;SDS011;52756;52.826;6.214;2022-08-25T04:29:07;5.53;;;3.53;;
54937;SDS011;52756;52.826;6.214;2022-08-25T04:31:34;7.43;;;3.00;;
54937;SDS011;52756;52.826;6.214;2022-08-25T04:34:01;4.03;;;2.72;;
54937;SDS011;52756;52.826;6.214;2022-08-25T04:36:28;5.50;;;3.25;;
54937;SDS011;52756;52.826;6.214;2022-08-25T04:38:53;4.38;;;2.95;;
54937;SDS011;52756;52.826;6.214;2022-08-25T04:41:20;3.65;;;2.75;;
54937;SDS011;52756;52.826;6.214;2022-08-25T04:43:48;4.43;;;3.17;;
54937;SDS011;52756;52.826;6.214;2022-08-25T04:46:19;6.53;;;3.20;;
54937;SDS011;52756;52.826;6.214;2022-08-25T04:48:47;6.65;;;3.25;;
54937;SDS011;52756;52.826;6.214;2022-08-25T04:51:15;4.75;;;2.88;;
54937;SDS011;52756;52.826;6.214;2022-08-25T04:53:48;5.05;;;3.33;;
54937;SDS011;52756;52.826;6.214;2022-08-25T04:56:15;3.53;;;2.78;;
54937;SDS011;52756;52.826;6.214;2022-08-25T04:58:42;7.20;;;3.10;;
54937;SDS011;52756;52.826;6.214;2022-08-25T05:01:14;5.80;;;3.15;;
54937;SDS011;52756;52.826;6.214;2022-08-25T05:03:41;6.57;;;3.35;;
54937;SDS011;52756;52.826;6.214;2022-08-25T05:06:08;4.50;;;2.95;;
54937;SDS011;52756;52.826;6.214;2022-08-25T05:08:34;5.18;;;2.90;;
54937;SDS011;52756;52.826;6.214;2022-08-25T05:11:06;5.60;;;3.03;;
54937;SDS011;52756;52.826;6.214;2022-08-25T05:13:34;4.55;;;3.30;;
54937;SDS011;52756;52.826;6.214;2022-08-25T05:16:00;6.18;;;3.30;;
54937;SDS011;52756;52.826;6.214;2022-08-25T05:18:27;7.82;;;3.70;;
54937;SDS011;52756;52.826;6.214;2022-08-25T05:20:54;6.35;;;3.30;;
54937;SDS011;52756;52.826;6.214;2022-08-25T05:23:24;5.30;;;2.85;;
54937;SDS011;52756;52.826;6.214;2022-08-25T05:25:50;5.13;;;2.78;;
54937;SDS011;52756;52.826;6.214;2022-08-25T05:28:17;4.97;;;3.13;;
54937;SDS011;52756;52.826;6.214;2022-08-25T05:30:44;4.55;;;3.30;;
54937;SDS011;52756;52.826;6.214;2022-08-25T05:33:11;6.93;;;3.20;;
54937;SDS011;52756;52.826;6.214;2022-08-25T05:35:37;5.13;;;3.40;;
54937;SDS011;52756;52.826;6.214;2022-08-25T05:38:04;5.20;;;2.90;;
54937;SDS011;52756;52.826;6.214;2022-08-25T05:40:30;7.30;;;3.45;;
54937;SDS011;52756;52.826;6.214;2022-08-25T05:42:56;4.00;;;3.10;;
54937;SDS011;52756;52.826;6.214;2022-08-25T05:45:22;7.68;;;3.47;;
54937;SDS011;52756;52.826;6.214;2022-08-25T05:47:48;6.80;;;3.45;;
54937;SDS011;52756;52.826;6.214;2022-08-25T05:50:15;7.10;;;3.25;;
54937;SDS011;52756;52.826;6.214;2022-08-25T05:52:41;4.65;;;3.40;;
54937;SDS011;52756;52.826;6.214;2022-08-25T05:55:08;5.65;;;2.90;;
54937;SDS011;52756;52.826;6.214;2022-08-25T05:57:34;7.93;;;2.85;;
54937;SDS011;52756;52.826;6.214;2022-08-25T06:00:00;4.85;;;3.20;;
54937;SDS011;52756;52.826;6.214;2022-08-25T06:02:26;3.92;;;2.63;;
54937;SDS011;52756;52.826;6.214;2022-08-25T06:05:20;5.95;;;3.00;;
54937;SDS011;52756;52.826;6.214;2022-08-25T06:07:48;8.45;;;3.35;;
54937;SDS011;52756;52.826;6.214;2022-08-25T06:10:15;6.03;;;2.72;;
54937;SDS011;52756;52.826;6.214;2022-08-25T06:12:43;5.65;;;3.80;;
54937;SDS011;52756;52.826;6.214;2022-08-25T06:15:11;5.97;;;3.15;;
54937;SDS011;52756;52.826;6.214;2022-08-25T06:17:44;6.22;;;3.03;;
54937;SDS011;52756;52.826;6.214;2022-08-25T06:20:12;5.57;;;3.08;;
54937;SDS011;52756;52.826;6.214;2022-08-25T06:22:40;6.07;;;3.28;;
54937;SDS011;52756;52.826;6.214;2022-08-25T06:25:07;7.22;;;3.22;;
54937;SDS011;52756;52.826;6.214;2022-08-25T06:27:34;5.82;;;2.60;;
54937;SDS011;52756;52.826;6.214;2022-08-25T06:30:00;7.38;;;2.65;;
54937;SDS011;52756;52.826;6.214;2022-08-25T06:32:32;6.18;;;3.30;;
54937;SDS011;52756;52.826;6.214;2022-08-25T06:35:04;5.22;;;2.83;;
54937;SDS011;52756;52.826;6.214;2022-08-25T06:37:31;7.05;;;3.10;;
54937;SDS011;52756;52.826;6.214;2022-08-25T06:39:56;5.18;;;2.67;;
54937;SDS011;52756;52.826;6.214;2022-08-25T06:42:22;6.00;;;2.92;;
54937;SDS011;52756;52.826;6.214;2022-08-25T06:44:48;6.60;;;2.80;;
54937;SDS011;52756;52.826;6.214;2022-08-25T06:47:14;6.07;;;2.92;;
54937;SDS011;52756;52.826;6.214;2022-08-25T06:49:41;4.38;;;2.47;;
54937;SDS011;52756;52.826;6.214;2022-08-25T06:52:07;4.78;;;2.85;;
54937;SDS011;52756;52.826;6.214;2022-08-25T06:54:33;4.60;;;2.70;;
54937;SDS011;52756;52.826;6.214;2022-08-25T06:56:59;6.38;;;3.00;;
54937;SDS011;52756;52.826;6.214;2022-08-25T06:59:25;6.47;;;3.17;;
54937;SDS011;52756;52.826;6.214;2022-08-25T07:01:51;5.78;;;2.55;;
54937;SDS011;52756;52.826;6.214;2022-08-25T07:04:17;7.15;;;3.40;;
54937;SDS011;52756;52.826;6.214;2022-08-25T07:06:43;6.38;;;2.80;;
54937;SDS011;52756;52.826;6.214;2022-08-25T07:09:10;5.25;;;2.80;;
54937;SDS011;52756;52.826;6.214;2022-08-25T07:11:37;5.90;;;3.00;;
54937;SDS011;52756;52.826;6.214;2022-08-25T07:14:05;5.05;;;2.90;;
54937;SDS011;52756;52.826;6.214;2022-08-25T07:16:33;6.85;;;3.58;;
54937;SDS011;52756;52.826;6.214;2022-08-25T07:19:00;7.55;;;3.05;;
54937;SDS011;52756;52.826;6.214;2022-08-25T07:21:26;5.38;;;3.42;;
54937;SDS011;52756;52.826;6.214;2022-08-25T07:23:53;7.07;;;3.00;;
54937;SDS011;52756;52.826;6.214;2022-08-25T07:26:20;7.28;;;2.85;;
54937;SDS011;52756;52.826;6.214;2022-08-25T07:28:47;10.40;;;3.45;;
54937;SDS011;52756;52.826;6.214;2022-08-25T07:31:13;7.85;;;2.92;;
54937;SDS011;52756;52.826;6.214;2022-08-25T07:33:39;4.78;;;2.80;;
54937;SDS011;52756;52.826;6.214;2022-08-25T07:36:28;4.85;;;2.78;;
54937;SDS011;52756;52.826;6.214;2022-08-25T07:38:56;7.25;;;3.15;;
54937;SDS011;52756;52.826;6.214;2022-08-25T07:41:22;6.47;;;3.15;;
54937;SDS011;52756;52.826;6.214;2022-08-25T07:43:48;4.70;;;2.90;;
54937;SDS011;52756;52.826;6.214;2022-08-25T07:46:14;4.90;;;2.70;;
54937;SDS011;52756;52.826;6.214;2022-08-25T07:48:40;5.15;;;2.97;;
54937;SDS011;52756;52.826;6.214;2022-08-25T07:51:06;5.90;;;3.20;;
54937;SDS011;52756;52.826;6.214;2022-08-25T07:53:34;5.30;;;3.20;;
54937;SDS011;52756;52.826;6.214;2022-08-25T07:56:00;5.07;;;2.92;;
54937;SDS011;52756;52.826;6.214;2022-08-25T07:58:26;5.05;;;3.22;;
54937;SDS011;52756;52.826;6.214;2022-08-25T08:00:53;7.65;;;2.67;;
54937;SDS011;52756;52.826;6.214;2022-08-25T08:03:19;5.97;;;2.67;;
54937;SDS011;52756;52.826;6.214;2022-08-25T08:05:45;4.10;;;2.53;;
54937;SDS011;52756;52.826;6.214;2022-08-25T08:08:11;4.75;;;2.47;;
54937;SDS011;52756;52.826;6.214;2022-08-25T08:10:38;6.13;;;2.53;;
54937;SDS011;52756;52.826;6.214;2022-08-25T08:13:04;4.80;;;3.00;;
54937;SDS011;52756;52.826;6.214;2022-08-25T08:15:31;4.15;;;2.80;;
54937;SDS011;52756;52.826;6.214;2022-08-25T08:17:57;5.68;;;2.65;;
54937;SDS011;52756;52.826;6.214;2022-08-25T08:20:23;5.78;;;2.72;;
54937;SDS011;52756;52.826;6.214;2022-08-25T08:22:49;5.97;;;2.88;;
54937;SDS011;52756;52.826;6.214;2022-08-25T08:25:16;4.38;;;2.25;;
54937;SDS011;52756;52.826;6.214;2022-08-25T08:27:41;4.68;;;2.88;;
54937;SDS011;52756;52.826;6.214;2022-08-25T08:30:08;7.45;;;3.20;;
54937;SDS011;52756;52.826;6.214;2022-08-25T08:32:34;5.72;;;2.60;;
54937;SDS011;52756;52.826;6.214;2022-08-25T08:35:00;5.47;;;3.08;;
54937;SDS011;52756;52.826;6.214;2022-08-25T08:37:26;5.57;;;3.00;;
54937;SDS011;52756;52.826;6.214;2022-08-25T08:39:52;6.93;;;2.65;;
54937;SDS011;52756;52.826;6.214;2022-08-25T08:45:44;7.22;;;2.35;;
54937;SDS011;52756;52.826;6.214;2022-08-25T08:56:37;6.22;;;2.42;;
54937;SDS011;52756;52.826;6.214;2022-08-25T08:59:12;6.63;;;2.45;;
54937;SDS011;52756;52.826;6.214;2022-08-25T09:10:25;5.15;;;2.30;;
54937;SDS011;52756;52.826;6.214;2022-08-25T09:13:11;4.65;;;1.88;;
54937;SDS011;52756;52.826;6.214;2022-08-25T09:15:49;4.28;;;2.47;;
54937;SDS011;52756;52.826;6.214;2022-08-25T09:21:58;4.47;;;2.53;;
54937;SDS011;52756;52.826;6.214;2022-08-25T09:27:45;5.38;;;2.13;;
54937;SDS011;52756;52.826;6.214;2022-08-25T09:30:23;5.38;;;2.33;;
54937;SDS011;52756;52.826;6.214;2022-08-25T09:32:50;6.25;;;2.00;;
54937;SDS011;52756;52.826;6.214;2022-08-25T09:35:32;4.35;;;1.90;;
54937;SDS011;52756;52.826;6.214;2022-08-25T09:38:06;4.28;;;2.20;;
54937;SDS011;52756;52.826;6.214;2022-08-25T09:40:34;4.45;;;1.77;;
54937;SDS011;52756;52.826;6.214;2022-08-25T09:43:20;3.47;;;1.60;;
54937;SDS011;52756;52.826;6.214;2022-08-25T09:45:57;5.03;;;2.10;;
54937;SDS011;52756;52.826;6.214;2022-08-25T09:48:27;3.10;;;1.80;;
54937;SDS011;52756;52.826;6.214;2022-08-25T09:50:57;6.10;;;2.30;;
54937;SDS011;52756;52.826;6.214;2022-08-25T09:53:26;5.35;;;2.08;;
54937;SDS011;52756;52.826;6.214;2022-08-25T09:55:59;4.05;;;2.25;;
54937;SDS011;52756;52.826;6.214;2022-08-25T09:58:30;3.65;;;2.08;;
54937;SDS011;52756;52.826;6.214;2022-08-25T10:01:00;4.78;;;2.22;;
54937;SDS011;52756;52.826;6.214;2022-08-25T10:03:29;3.30;;;2.20;;
54937;SDS011;52756;52.826;6.214;2022-08-25T10:08:28;5.35;;;2.25;;
54937;SDS011;52756;52.826;6.214;2022-08-25T10:10:55;4.72;;;1.80;;
54937;SDS011;52756;52.826;6.214;2022-08-25T10:13:32;6.30;;;2.13;;
54937;SDS011;52756;52.826;6.214;2022-08-25T10:16:04;4.45;;;2.17;;
54937;SDS011;52756;52.826;6.214;2022-08-25T10:19:08;6.90;;;1.80;;
54937;SDS011;52756;52.826;6.214;2022-08-25T10:21:37;3.75;;;2.20;;
54937;SDS011;52756;52.826;6.214;2022-08-25T10:24:05;4.53;;;2.28;;
54937;SDS011;52756;52.826;6.214;2022-08-25T10:26:36;4.28;;;1.95;;
54937;SDS011;52756;52.826;6.214;2022-08-25T10:29:35;4.65;;;2.20;;
54937;SDS011;52756;52.826;6.214;2022-08-25T10:32:27;6.63;;;2.20;;
54937;SDS011;52756;52.826;6.214;2022-08-25T10:34:57;4.13;;;1.80;;
54937;SDS011;52756;52.826;6.214;2022-08-25T10:42:47;3.92;;;2.05;;
54937;SDS011;52756;52.826;6.214;2022-08-25T10:48:16;2.70;;;2.15;;
54937;SDS011;52756;52.826;6.214;2022-08-25T10:50:59;3.58;;;2.03;;
54937;SDS011;52756;52.826;6.214;2022-08-25T10:53:38;4.78;;;2.20;;
54937;SDS011;52756;52.826;6.214;2022-08-25T10:56:08;4.47;;;2.03;;
54937;SDS011;52756;52.826;6.214;2022-08-25T10:59:01;8.07;;;2.53;;
54937;SDS011;52756;52.826;6.214;2022-08-25T11:04:27;3.38;;;1.95;;
54937;SDS011;52756;52.826;6.214;2022-08-25T11:07:08;3.75;;;2.08;;
54937;SDS011;52756;52.826;6.214;2022-08-25T11:09:44;5.65;;;2.30;;
54937;SDS011;52756;52.826;6.214;2022-08-25T11:12:14;3.00;;;2.00;;
54937;SDS011;52756;52.826;6.214;2022-08-25T11:15:03;5.83;;;1.97;;
54937;SDS011;52756;52.826;6.214;2022-08-25T11:17:54;4.95;;;2.90;;
54937;SDS011;52756;52.826;6.214;2022-08-25T11:20:36;3.28;;;2.25;;
54937;SDS011;52756;52.826;6.214;2022-08-25T11:23:14;4.20;;;2.15;;
54937;SDS011;52756;52.826;6.214;2022-08-25T11:25:52;3.53;;;2.78;;
54937;SDS011;52756;52.826;6.214;2022-08-25T11:31:10;3.08;;;2.40;;
54937;SDS011;52756;52.826;6.214;2022-08-25T11:33:38;4.72;;;2.20;;
54937;SDS011;52756;52.826;6.214;2022-08-25T11:39:06;4.05;;;2.35;;
54937;SDS011;52756;52.826;6.214;2022-08-25T11:55:15;5.00;;;2.10;;
54937;SDS011;52756;52.826;6.214;2022-08-25T11:57:47;3.40;;;2.15;;
54937;SDS011;52756;52.826;6.214;2022-08-25T12:16:43;2.47;;;1.67;;
54937;SDS011;52756;52.826;6.214;2022-08-25T12:27:29;3.30;;;1.88;;
54937;SDS011;52756;52.826;6.214;2022-08-25T12:30:12;3.75;;;1.60;;
54937;SDS011;52756;52.826;6.214;2022-08-25T12:35:37;3.00;;;1.83;;
54937;SDS011;52756;52.826;6.214;2022-08-25T12:38:27;5.22;;;2.28;;
54937;SDS011;52756;52.826;6.214;2022-08-25T12:43:47;2.50;;;2.00;;
54937;SDS011;52756;52.826;6.214;2022-08-25T12:49:04;3.85;;;1.65;;
54937;SDS011;52756;52.826;6.214;2022-08-25T12:51:52;2.70;;;1.92;;
54937;SDS011;52756;52.826;6.214;2022-08-25T12:59:58;2.90;;;1.63;;
54937;SDS011;52756;52.826;6.214;2022-08-25T13:16:25;4.47;;;1.75;;
54937;SDS011;52756;52.826;6.214;2022-08-25T13:18:52;5.45;;;2.00;;
54937;SDS011;52756;52.826;6.214;2022-08-25T13:23:53;4.40;;;1.50;;
54937;SDS011;52756;52.826;6.214;2022-08-25T13:26:31;2.65;;;1.52;;
54937;SDS011;52756;52.826;6.214;2022-08-25T13:32:00;1.60;;;1.30;;
54937;SDS011;52756;52.826;6.214;2022-08-25T13:34:35;2.50;;;1.20;;
54937;SDS011;52756;52.826;6.214;2022-08-25T13:37:04;2.63;;;1.50;;
54937;SDS011;52756;52.826;6.214;2022-08-25T13:39:50;3.15;;;1.10;;
54937;SDS011;52756;52.826;6.214;2022-08-25T13:42:31;1.98;;;1.42;;
54937;SDS011;52756;52.826;6.214;2022-08-25T13:44:57;4.72;;;1.50;;
54937;SDS011;52756;52.826;6.214;2022-08-25T13:47:36;2.58;;;1.70;;
54937;SDS011;52756;52.826;6.214;2022-08-25T13:50:17;3.00;;;1.73;;
54937;SDS011;52756;52.826;6.214;2022-08-25T13:55:25;2.78;;;1.50;;
54937;SDS011;52756;52.826;6.214;2022-08-25T13:58:12;2.25;;;1.40;;
54937;SDS011;52756;52.826;6.214;2022-08-25T14:00:45;3.13;;;1.10;;
54937;SDS011;52756;52.826;6.214;2022-08-25T14:03:29;1.98;;;1.00;;
54937;SDS011;52756;52.826;6.214;2022-08-25T14:06:07;2.33;;;1.23;;
54937;SDS011;52756;52.826;6.214;2022-08-25T14:08:48;1.90;;;1.20;;
54937;SDS011;52756;52.826;6.214;2022-08-25T14:16:47;3.97;;;1.45;;
54937;SDS011;52756;52.826;6.214;2022-08-25T14:19:34;3.13;;;1.30;;
54937;SDS011;52756;52.826;6.214;2022-08-25T14:22:08;1.73;;;1.25;;
54937;SDS011;52756;52.826;6.214;2022-08-25T14:24:36;4.22;;;1.50;;
54937;SDS011;52756;52.826;6.214;2022-08-25T14:27:04;1.85;;;1.40;;
54937;SDS011;52756;52.826;6.214;2022-08-25T14:29:30;4.45;;;1.30;;
54937;SDS011;52756;52.826;6.214;2022-08-25T14:31:57;2.60;;;1.58;;
54937;SDS011;52756;52.826;6.214;2022-08-25T14:34:30;4.53;;;1.42;;
54937;SDS011;52756;52.826;6.214;2022-08-25T14:37:08;2.25;;;1.50;;
54937;SDS011;52756;52.826;6.214;2022-08-25T14:39:43;3.85;;;1.63;;
54937;SDS011;52756;52.826;6.214;2022-08-25T14:42:10;3.65;;;1.55;;
54937;SDS011;52756;52.826;6.214;2022-08-25T14:44:37;2.75;;;1.52;;
54937;SDS011;52756;52.826;6.214;2022-08-25T14:47:03;4.53;;;1.83;;
54937;SDS011;52756;52.826;6.214;2022-08-25T14:49:33;2.25;;;1.48;;
54937;SDS011;52756;52.826;6.214;2022-08-25T14:52:23;2.53;;;1.50;;
54937;SDS011;52756;52.826;6.214;2022-08-25T14:54:51;3.45;;;1.75;;
54937;SDS011;52756;52.826;6.214;2022-08-25T14:57:17;4.82;;;2.17;;
54937;SDS011;52756;52.826;6.214;2022-08-25T14:59:44;2.22;;;1.40;;
54937;SDS011;52756;52.826;6.214;2022-08-25T15:02:11;4.72;;;1.65;;
54937;SDS011;52756;52.826;6.214;2022-08-25T15:04:42;3.67;;;1.90;;
54937;SDS011;52756;52.826;6.214;2022-08-25T15:07:24;2.63;;;1.80;;
54937;SDS011;52756;52.826;6.214;2022-08-25T15:10:10;5.18;;;2.17;;
54937;SDS011;52756;52.826;6.214;2022-08-25T15:12:35;2.38;;;1.73;;
54937;SDS011;52756;52.826;6.214;2022-08-25T15:15:01;5.43;;;2.38;;
54937;SDS011;52756;52.826;6.214;2022-08-25T15:17:27;3.67;;;2.03;;
54937;SDS011;52756;52.826;6.214;2022-08-25T15:19:53;2.60;;;1.80;;
54937;SDS011;52756;52.826;6.214;2022-08-25T15:22:19;5.03;;;1.83;;
54937;SDS011;52756;52.826;6.214;2022-08-25T15:24:44;2.05;;;1.45;;
54937;SDS011;52756;52.826;6.214;2022-08-25T15:27:10;3.72;;;2.10;;
54937;SDS011;52756;52.826;6.214;2022-08-25T15:29:38;3.97;;;1.90;;
54937;SDS011;52756;52.826;6.214;2022-08-25T15:32:05;2.28;;;1.88;;
54937;SDS011;52756;52.826;6.214;2022-08-25T15:34:32;4.03;;;2.08;;
54937;SDS011;52756;52.826;6.214;2022-08-25T15:36:59;2.17;;;1.70;;
54937;SDS011;52756;52.826;6.214;2022-08-25T15:39:38;4.68;;;1.77;;
54937;SDS011;52756;52.826;6.214;2022-08-25T15:42:05;3.38;;;2.22;;
54937;SDS011;52756;52.826;6.214;2022-08-25T15:44:31;3.90;;;2.30;;
54937;SDS011;52756;52.826;6.214;2022-08-25T15:46:58;5.63;;;2.30;;
54937;SDS011;52756;52.826;6.214;2022-08-25T15:49:24;3.90;;;2.00;;
54937;SDS011;52756;52.826;6.214;2022-08-25T15:51:51;3.33;;;2.03;;
54937;SDS011;52756;52.826;6.214;2022-08-25T15:54:18;3.50;;;2.38;;
54937;SDS011;52756;52.826;6.214;2022-08-25T15:56:45;3.55;;;2.30;;
54937;SDS011;52756;52.826;6.214;2022-08-25T15:59:11;3.85;;;2.05;;
54937;SDS011;52756;52.826;6.214;2022-08-25T16:01:38;3.80;;;2.40;;
54937;SDS011;52756;52.826;6.214;2022-08-25T16:04:05;4.40;;;2.25;;
54937;SDS011;52756;52.826;6.214;2022-08-25T16:06:31;4.15;;;2.30;;
54937;SDS011;52756;52.826;6.214;2022-08-25T16:08:57;3.35;;;2.05;;
54937;SDS011;52756;52.826;6.214;2022-08-25T16:11:25;3.63;;;2.47;;
54937;SDS011;52756;52.826;6.214;2022-08-25T16:13:53;4.65;;;2.10;;
54937;SDS011;52756;52.826;6.214;2022-08-25T16:16:21;3.72;;;2.28;;
54937;SDS011;52756;52.826;6.214;2022-08-25T16:18:48;3.00;;;2.20;;
54937;SDS011;52756;52.826;6.214;2022-08-25T16:21:15;3.55;;;2.05;;
54937;SDS011;52756;52.826;6.214;2022-08-25T16:23:44;2.60;;;2.25;;
54937;SDS011;52756;52.826;6.214;2022-08-25T16:26:10;4.43;;;2.53;;
54937;SDS011;52756;52.826;6.214;2022-08-25T16:28:40;3.92;;;2.40;;
54937;SDS011;52756;52.826;6.214;2022-08-25T16:31:10;3.60;;;2.38;;
54937;SDS011;52756;52.826;6.214;2022-08-25T16:33:38;4.20;;;1.98;;
54937;SDS011;52756;52.826;6.214;2022-08-25T16:36:08;4.68;;;2.40;;
54937;SDS011;52756;52.826;6.214;2022-08-25T16:38:36;3.70;;;2.20;;
54937;SDS011;52756;52.826;6.214;2022-08-25T16:41:10;3.13;;;2.00;;
54937;SDS011;52756;52.826;6.214;2022-08-25T16:43:38;3.38;;;2.20;;
54937;SDS011;52756;52.826;6.214;2022-08-25T16:46:05;5.53;;;2.83;;
54937;SDS011;52756;52.826;6.214;2022-08-25T16:48:33;4.32;;;2.20;;
54937;SDS011;52756;52.826;6.214;2022-08-25T16:50:59;5.45;;;2.38;;
54937;SDS011;52756;52.826;6.214;2022-08-25T16:53:25;4.22;;;2.28;;
54937;SDS011;52756;52.826;6.214;2022-08-25T16:56:09;4.18;;;2.88;;
54937;SDS011;52756;52.826;6.214;2022-08-25T16:58:35;11.30;;;6.45;;
54937;SDS011;52756;52.826;6.214;2022-08-25T17:01:02;16.67;;;11.63;;
54937;SDS011;52756;52.826;6.214;2022-08-25T17:03:33;9.60;;;5.18;;
54937;SDS011;52756;52.826;6.214;2022-08-25T17:06:00;4.95;;;3.40;;
54937;SDS011;52756;52.826;6.214;2022-08-25T17:08:26;4.63;;;3.28;;
54937;SDS011;52756;52.826;6.214;2022-08-25T17:11:02;11.57;;;8.68;;
54937;SDS011;52756;52.826;6.214;2022-08-25T17:13:34;11.95;;;7.30;;
54937;SDS011;52756;52.826;6.214;2022-08-25T17:16:01;5.72;;;4.47;;